createdAt,value
2022-11-05T00:03:28.821Z,50.00
2022-11-05T00:06:38.195Z,55.60
2022-11-05T00:09:31.861Z,51.83
2022-11-05T00:12:41.303Z,53.43
2022-11-05T00:15:51.356Z,50.07
2022-11-05T00:18:45.438Z,52.10
2022-11-05T00:21:56.515Z,49.00
2022-11-05T00:25:06.160Z,50.30
2022-11-05T00:28:03.736Z,47.93
2022-11-05T00:31:01.440Z,55.67
2022-11-05T00:33:53.634Z,50.40
2022-11-05T00:36:45.289Z,47.60
2022-11-05T00:39:37.430Z,48.93
2022-11-05T00:42:47.023Z,43.68
2022-11-05T00:45:40.290Z,47.17
2022-11-05T00:48:50.132Z,46.30
2022-11-05T00:51:42.149Z,44.13
2022-11-05T00:54:34.193Z,43.75
2022-11-05T00:57:26.678Z,49.43
2022-11-05T01:00:20.432Z,43.17
2022-11-05T01:03:14.943Z,45.23
2022-11-05T01:06:14.068Z,48.07
2022-11-05T01:09:07.033Z,41.33
2022-11-05T01:11:59.284Z,42.07
2022-11-05T01:14:51.342Z,45.90
2022-11-05T01:17:43.345Z,40.63
2022-11-05T01:20:35.722Z,41.75
2022-11-05T01:23:27.307Z,37.53
2022-11-05T01:26:20.120Z,41.60
2022-11-05T01:29:14.695Z,39.47
2022-11-05T01:32:07.395Z,34.97
2022-11-05T01:37:50.421Z,35.30
2022-11-05T01:40:46.357Z,35.83
2022-11-05T01:43:51.576Z,35.27
2022-11-05T01:46:47.775Z,33.83
2022-11-05T01:49:40.921Z,32.30
2022-11-05T01:52:36.510Z,31.07
2022-11-05T01:55:33.076Z,36.30
2022-11-05T01:58:32.341Z,31.13
2022-11-05T02:01:24.357Z,30.57
2022-11-05T02:04:22.741Z,32.97
2022-11-05T02:07:15.557Z,33.00
2022-11-05T02:10:11.089Z,31.17
2022-11-05T02:13:03.971Z,36.73
2022-11-05T02:16:04.762Z,32.57
2022-11-05T02:19:08.101Z,29.70
2022-11-05T02:22:22.863Z,35.80
2022-11-05T02:25:34.352Z,39.63
2022-11-05T02:28:50.138Z,29.67
2022-11-05T02:31:47.704Z,33.07
2022-11-05T02:34:51.001Z,31.50
2022-11-05T02:37:47.035Z,33.20
2022-11-05T02:40:47.500Z,31.07
2022-11-05T02:43:52.892Z,31.30
2022-11-05T02:46:55.988Z,30.60
2022-11-05T02:49:55.498Z,32.77
2022-11-05T02:52:56.431Z,31.53
2022-11-05T02:55:52.867Z,31.70
2022-11-05T02:58:45.220Z,29.87
2022-11-05T03:01:39.426Z,36.88
2022-11-05T03:04:33.454Z,30.77
2022-11-05T03:07:39.621Z,31.97
2022-11-05T03:10:44.629Z,29.03
2022-11-05T03:13:46.933Z,29.53
2022-11-05T03:16:43.138Z,29.80
2022-11-05T03:19:40.523Z,32.90
2022-11-05T03:22:41.666Z,31.07
2022-11-05T03:25:39.024Z,29.23
2022-11-05T03:28:35.888Z,29.17
2022-11-05T03:31:28.709Z,30.10
2022-11-05T03:34:23.036Z,27.80
2022-11-05T03:37:16.434Z,33.30
2022-11-05T03:40:13.514Z,30.07
2022-11-05T03:43:08.375Z,27.27
2022-11-05T03:46:06.303Z,30.30
2022-11-05T03:49:00.625Z,33.73
2022-11-05T03:51:59.050Z,28.73
2022-11-05T03:54:51.332Z,38.43
2022-11-05T03:57:48.849Z,29.03
2022-11-05T04:00:41.286Z,32.47
2022-11-05T04:03:36.748Z,33.90
2022-11-05T04:06:46.650Z,28.93
2022-11-05T04:09:57.114Z,31.10
2022-11-05T04:13:07.515Z,30.33
2022-11-05T04:16:18.451Z,28.97
2022-11-05T04:19:10.697Z,28.93
2022-11-05T04:22:20.332Z,29.07
2022-11-05T04:25:13.848Z,29.43
2022-11-05T04:28:06.279Z,31.93
2022-11-05T04:30:59.088Z,30.53
2022-11-05T04:33:51.213Z,30.20
2022-11-05T04:39:34.366Z,30.70
2022-11-05T04:42:26.808Z,30.63
2022-11-05T04:45:19.249Z,29.65
2022-11-05T04:48:11.686Z,34.30
2022-11-05T04:51:04.792Z,34.18
2022-11-05T04:53:56.972Z,34.67
2022-11-05T04:56:49.045Z,31.33
2022-11-05T05:02:32.101Z,35.53
2022-11-05T05:08:16.006Z,29.53
2022-11-05T05:13:59.152Z,31.37
2022-11-05T05:16:51.924Z,30.10
2022-11-05T05:20:01.848Z,34.00
2022-11-05T05:22:58.182Z,27.47
2022-11-05T05:25:50.719Z,36.53
2022-11-05T05:28:42.683Z,33.73
2022-11-05T05:31:35.827Z,31.52
2022-11-05T05:34:27.794Z,33.87
2022-11-05T05:37:19.430Z,33.20
2022-11-05T05:40:14.324Z,30.17
2022-11-05T05:43:06.757Z,31.97
2022-11-05T05:45:59.041Z,31.20
2022-11-05T05:51:44.544Z,30.20
2022-11-05T05:54:42.260Z,30.52
2022-11-05T05:57:36.201Z,32.57
2022-11-05T06:03:18.757Z,29.80
2022-11-05T06:06:14.209Z,33.55
2022-11-05T06:09:06.265Z,34.80
2022-11-05T06:11:57.877Z,40.67
2022-11-05T06:14:51.790Z,33.70
2022-11-05T06:17:46.123Z,36.23
2022-11-05T06:20:38.110Z,41.83
2022-11-05T06:23:31.217Z,39.10
2022-11-05T06:26:24.226Z,36.03
2022-11-05T06:29:16.696Z,39.00
2022-11-05T06:32:09.020Z,42.33
2022-11-05T06:35:01.094Z,39.58
2022-11-05T06:37:53.527Z,45.70
2022-11-05T06:40:45.976Z,53.17
2022-11-05T06:46:27.987Z,42.70
2022-11-05T06:49:20.284Z,52.62
2022-11-05T06:52:12.388Z,47.33
2022-11-05T06:55:04.899Z,45.83
2022-11-05T06:57:58.670Z,49.40
2022-11-05T07:00:51.655Z,46.80
2022-11-05T07:03:45.325Z,49.43
2022-11-05T07:06:37.310Z,53.57
2022-11-05T07:09:30.261Z,46.60
2022-11-05T07:12:22.207Z,53.53
2022-11-05T07:15:15.790Z,52.60
2022-11-05T07:18:09.551Z,49.37
2022-11-05T07:21:02.395Z,48.83
2022-11-05T07:23:54.279Z,49.67
2022-11-05T07:26:47.372Z,48.00
2022-11-05T07:29:39.929Z,50.80
2022-11-05T07:32:32.984Z,50.67
2022-11-05T07:35:27.185Z,49.73
2022-11-05T07:38:22.942Z,53.00
2022-11-05T07:41:15.831Z,49.33
2022-11-05T07:44:07.872Z,50.97
2022-11-05T07:47:00.110Z,44.40
2022-11-05T07:52:42.391Z,43.70
2022-11-05T07:55:35.261Z,48.13
2022-11-05T07:58:27.576Z,54.20
2022-11-05T08:01:19.707Z,51.25
2022-11-05T08:04:12.303Z,51.37
2022-11-05T08:07:04.332Z,46.17
2022-11-05T08:09:56.535Z,46.55
2022-11-05T08:12:48.798Z,46.60
2022-11-05T08:15:41.070Z,50.17
2022-11-05T08:21:24.550Z,48.90
2022-11-05T08:24:17.132Z,54.93
2022-11-05T08:30:00.028Z,54.67
2022-11-05T08:32:52.905Z,56.73
2022-11-05T08:35:45.461Z,57.63
2022-11-05T08:38:37.761Z,55.87
2022-11-05T08:41:30.141Z,57.83
2022-11-05T08:44:22.378Z,58.43
2022-11-05T08:47:14.642Z,59.03
2022-11-05T08:50:07.308Z,52.03
2022-11-05T08:53:00.600Z,55.70
2022-11-05T08:55:52.801Z,50.33
2022-11-05T08:58:46.946Z,52.40
2022-11-05T09:01:42.518Z,57.37
2022-11-05T09:04:35.977Z,54.47
2022-11-05T09:07:32.628Z,50.37
2022-11-05T09:10:26.170Z,50.00
2022-11-05T09:13:20.327Z,50.07
2022-11-05T09:16:20.854Z,48.33
2022-11-05T09:19:13.380Z,49.37
2022-11-05T09:22:05.553Z,50.83
2022-11-05T09:24:58.383Z,53.92
2022-11-05T09:27:51.133Z,51.97
2022-11-05T09:30:48.890Z,47.33
2022-11-05T09:33:43.826Z,51.70
2022-11-05T09:36:36.224Z,50.30
2022-11-05T09:39:29.283Z,52.50
2022-11-05T09:42:26.237Z,52.77
2022-11-05T09:45:21.692Z,52.57
2022-11-05T09:48:22.413Z,50.07
2022-11-05T09:51:23.689Z,49.10
2022-11-05T09:54:17.896Z,47.00
2022-11-05T09:57:18.053Z,48.30
2022-11-05T10:00:17.472Z,46.15
2022-11-05T10:03:14.199Z,42.90
2022-11-05T10:06:14.150Z,46.57
2022-11-05T10:09:13.537Z,43.73
2022-11-05T10:12:12.691Z,43.80
2022-11-05T10:15:12.133Z,42.80
2022-11-05T10:18:14.254Z,45.57
2022-11-05T10:21:07.980Z,44.23
2022-11-05T10:24:00.953Z,46.77
2022-11-05T10:26:55.711Z,48.00
2022-11-05T10:29:48.333Z,42.20
2022-11-05T10:32:42.770Z,44.53
2022-11-05T10:35:42.030Z,37.13
2022-11-05T10:38:49.911Z,42.27
2022-11-05T10:42:24.355Z,41.90
2022-11-05T10:45:27.031Z,39.93
2022-11-05T10:48:53.380Z,41.80
2022-11-05T10:52:07.006Z,43.43
2022-11-05T10:55:11.317Z,39.83
2022-11-05T10:58:24.914Z,40.13
2022-11-05T11:01:16.993Z,39.73
2022-11-05T11:04:16.299Z,44.87
2022-11-05T11:07:20.284Z,37.93
2022-11-05T11:10:23.101Z,39.73
2022-11-05T11:13:24.501Z,38.73
2022-11-05T11:16:24.473Z,33.43
2022-11-05T11:19:29.085Z,35.77
2022-11-05T11:22:23.562Z,36.33
2022-11-05T11:25:28.584Z,41.33
2022-11-05T11:28:24.618Z,37.60
2022-11-05T11:31:19.236Z,33.53
2022-11-05T11:34:27.077Z,37.23
2022-11-05T11:37:24.609Z,34.37
2022-11-05T11:40:22.005Z,33.60
2022-11-05T11:43:24.603Z,36.63
2022-11-05T11:46:21.481Z,39.00
2022-11-05T11:49:34.455Z,33.07
2022-11-05T11:52:33.339Z,36.13
2022-11-05T11:55:27.877Z,34.60
2022-11-05T11:58:20.122Z,34.53
2022-11-05T12:01:49.088Z,38.43
2022-11-05T12:05:04.746Z,33.47
2022-11-05T12:07:59.432Z,40.57
2022-11-05T12:11:04.642Z,32.43
2022-11-05T12:14:04.482Z,29.97
2022-11-05T12:17:19.922Z,47.57
2022-11-05T12:20:35.544Z,39.40
2022-11-05T12:23:50.630Z,34.67
2022-11-05T12:26:54.911Z,37.40
2022-11-05T12:29:59.636Z,31.53
2022-11-05T12:33:20.454Z,31.80
2022-11-05T12:36:33.744Z,33.67
2022-11-05T12:39:50.905Z,32.27
2022-11-05T12:42:57.673Z,28.10
2022-11-05T12:45:58.105Z,33.90
2022-11-05T12:49:15.942Z,33.17
2022-11-05T12:52:40.072Z,31.53
2022-11-05T12:55:37.073Z,28.67
2022-11-05T12:58:34.323Z,31.60
2022-11-05T13:01:34.257Z,33.83
2022-11-05T13:04:42.078Z,29.30
2022-11-05T13:07:39.200Z,30.23
2022-11-05T13:10:37.655Z,34.30
2022-11-05T13:13:38.490Z,27.70
2022-11-05T13:16:35.450Z,28.67
2022-11-05T13:19:31.028Z,30.83
2022-11-05T13:22:37.053Z,29.37
2022-11-05T13:25:32.713Z,29.60
2022-11-05T13:28:38.717Z,30.97
2022-11-05T13:31:36.393Z,29.63
2022-11-05T13:34:33.440Z,27.67
2022-11-05T13:37:50.859Z,27.23
2022-11-05T13:40:56.202Z,30.67
2022-11-05T13:44:03.799Z,32.67
2022-11-05T13:47:17.332Z,29.47
2022-11-05T13:50:54.136Z,31.00
2022-11-05T13:54:23.847Z,28.63
2022-11-05T13:57:36.518Z,28.70
2022-11-05T14:00:35.137Z,25.50
2022-11-05T14:03:28.457Z,25.10
2022-11-05T14:06:27.769Z,29.67
2022-11-05T14:09:26.052Z,28.00
2022-11-05T14:12:26.646Z,26.43
2022-11-05T14:15:25.869Z,29.00
2022-11-05T14:18:40.073Z,23.77
2022-11-05T14:21:51.237Z,26.13
2022-11-05T14:24:47.482Z,27.00
2022-11-05T14:27:56.293Z,30.93
2022-11-05T14:30:50.654Z,26.07
2022-11-05T14:33:55.518Z,26.87
2022-11-05T14:37:03.522Z,26.37
2022-11-05T14:39:57.275Z,32.70
2022-11-05T14:42:53.210Z,24.10
2022-11-05T14:45:55.383Z,25.83
2022-11-05T14:48:52.774Z,25.32
2022-11-05T14:51:49.374Z,28.67
2022-11-05T14:54:46.999Z,30.40
2022-11-05T14:58:07.807Z,26.87
2022-11-05T15:01:02.200Z,29.07
2022-11-05T15:04:26.823Z,26.37
2022-11-05T15:07:38.892Z,28.77
2022-11-05T15:13:32.938Z,28.20
2022-11-05T15:16:31.356Z,26.73
2022-11-05T15:19:30.820Z,30.27
2022-11-05T15:22:38.280Z,23.67
2022-11-05T15:25:36.387Z,28.70
2022-11-05T15:28:35.585Z,28.15
2022-11-05T15:31:42.139Z,27.43
2022-11-05T15:34:36.057Z,29.60
2022-11-05T15:37:29.169Z,27.47
2022-11-05T15:40:29.353Z,26.13
2022-11-05T15:43:21.754Z,32.33
2022-11-05T15:49:11.120Z,36.50
2022-11-05T15:52:03.380Z,29.67
2022-11-05T15:55:22.858Z,28.77
2022-11-05T15:58:15.092Z,28.07
2022-11-05T16:01:08.799Z,29.93
2022-11-05T16:04:09.788Z,27.48
2022-11-05T16:07:10.235Z,28.00
2022-11-05T16:10:07.381Z,29.90
2022-11-05T16:13:31.756Z,26.45
2022-11-05T16:16:34.210Z,30.43
2022-11-05T16:19:42.869Z,28.02
2022-11-05T16:22:53.689Z,27.07
2022-11-05T16:25:47.337Z,28.10
2022-11-05T16:28:39.547Z,26.57
2022-11-05T16:31:34.041Z,28.33
2022-11-05T16:34:32.085Z,28.97
2022-11-05T16:37:25.803Z,29.63
2022-11-05T16:40:21.295Z,29.50
2022-11-05T16:43:22.183Z,29.47
2022-11-05T16:46:15.773Z,27.57
2022-11-05T16:49:08.042Z,25.57
2022-11-05T16:52:02.327Z,25.50
2022-11-05T16:54:54.344Z,32.00
2022-11-05T17:00:38.217Z,28.00
2022-11-05T17:03:30.328Z,25.40
2022-11-05T17:06:23.811Z,32.37
2022-11-05T17:09:15.539Z,26.80
2022-11-05T17:12:08.336Z,31.93
2022-11-05T17:15:00.385Z,25.33
2022-11-05T17:20:48.119Z,31.13
2022-11-05T17:23:40.928Z,29.30
2022-11-05T17:26:33.874Z,34.63
2022-11-05T17:29:27.548Z,32.35
2022-11-05T17:32:20.068Z,29.53
2022-11-05T17:35:14.398Z,33.43
2022-11-05T17:38:06.917Z,27.73
2022-11-05T17:40:59.566Z,28.60
2022-11-05T17:43:54.576Z,30.87
2022-11-05T17:46:46.700Z,35.93
2022-11-05T17:49:38.934Z,27.23
2022-11-05T17:52:32.368Z,29.05
2022-11-05T17:55:24.316Z,30.40
2022-11-05T17:58:17.696Z,34.57
2022-11-05T18:01:26.200Z,36.27
2022-11-05T18:04:18.955Z,39.80
2022-11-05T18:07:11.018Z,33.47
2022-11-05T18:10:03.108Z,32.45
2022-11-05T18:12:55.427Z,32.58
2022-11-05T18:15:47.350Z,37.87
2022-11-05T18:18:39.559Z,29.67
2022-11-05T18:21:32.385Z,28.32
2022-11-05T18:24:25.004Z,33.43
2022-11-05T18:27:17.024Z,29.23
2022-11-05T18:30:14.250Z,32.57
2022-11-05T18:33:06.476Z,30.70
2022-11-05T18:35:59.293Z,29.00
2022-11-05T18:38:53.018Z,31.37
2022-11-05T18:41:45.986Z,36.97
2022-11-05T18:44:39.392Z,30.93
2022-11-05T18:47:33.679Z,30.90
2022-11-05T18:50:26.418Z,29.47
2022-11-05T18:53:18.699Z,31.23
2022-11-05T18:56:16.456Z,33.58
2022-11-05T18:59:35.301Z,33.43
2022-11-05T19:02:20.856Z,29.52
2022-11-05T19:05:28.425Z,31.27
2022-11-05T19:08:21.654Z,32.07
2022-11-05T19:11:15.839Z,29.37
2022-11-05T19:14:10.183Z,30.13
2022-11-05T19:17:02.626Z,31.50
2022-11-05T19:19:55.284Z,37.77
2022-11-05T19:22:48.941Z,36.67
2022-11-05T19:28:33.005Z,32.20
2022-11-05T19:31:26.567Z,31.05
2022-11-05T19:34:19.367Z,31.43
2022-11-05T19:37:12.599Z,29.40
2022-11-05T19:40:04.817Z,30.50
2022-11-05T19:42:57.144Z,31.47
2022-11-05T19:45:49.087Z,30.08
2022-11-05T19:48:42.252Z,27.87
2022-11-05T19:51:35.198Z,34.33
2022-11-05T19:54:28.661Z,30.85
2022-11-05T19:57:21.310Z,28.90
2022-11-05T20:00:16.361Z,26.57
2022-11-05T20:03:09.623Z,29.33
2022-11-05T20:06:08.900Z,28.50
2022-11-05T20:12:15.260Z,29.10
2022-11-05T20:15:09.477Z,27.90
2022-11-05T20:18:01.985Z,25.97
2022-11-05T20:21:04.142Z,25.43
2022-11-05T20:23:59.472Z,31.12
2022-11-05T20:26:52.299Z,31.07
2022-11-05T20:29:44.926Z,33.07
2022-11-05T20:32:37.092Z,29.10
2022-11-05T20:35:30.867Z,26.07
2022-11-05T20:38:22.853Z,29.83
2022-11-05T20:41:16.041Z,27.27
2022-11-05T20:44:08.405Z,27.37
2022-11-05T20:47:00.737Z,29.07
2022-11-05T20:49:53.462Z,31.47
2022-11-05T20:52:45.485Z,27.27
2022-11-05T20:55:44.139Z,27.27
2022-11-05T20:58:37.319Z,30.63
2022-11-05T21:01:30.754Z,33.73
2022-11-05T21:04:23.541Z,33.50
2022-11-05T21:07:15.822Z,30.73
2022-11-05T21:12:59.356Z,29.20
2022-11-05T21:15:55.710Z,30.73
2022-11-05T21:18:48.534Z,32.47
2022-11-05T21:21:42.118Z,33.80
2022-11-05T21:24:35.761Z,29.57
2022-11-05T21:27:28.820Z,29.77
2022-11-05T21:30:20.955Z,35.97
2022-11-05T21:33:13.704Z,31.00
2022-11-05T21:36:12.505Z,30.63
2022-11-05T21:39:09.100Z,34.07
2022-11-05T21:42:05.875Z,33.47
2022-11-05T21:45:00.564Z,31.50
2022-11-05T21:47:53.164Z,30.43
2022-11-05T21:51:02.981Z,32.93
2022-11-05T21:54:13.241Z,35.13
2022-11-05T21:57:22.880Z,32.23
2022-11-05T22:00:16.864Z,30.80
2022-11-05T22:03:09.078Z,29.97
2022-11-05T22:06:01.762Z,31.27
2022-11-05T22:08:53.884Z,29.97
2022-11-05T22:11:45.498Z,31.80
2022-11-05T22:14:37.401Z,29.48
2022-11-05T22:20:20.341Z,39.60
2022-11-05T22:26:04.033Z,34.27
2022-11-05T22:28:57.557Z,32.93
2022-11-05T22:31:49.363Z,30.60
2022-11-05T22:34:41.120Z,31.45
2022-11-05T22:37:32.926Z,31.68
2022-11-05T22:40:24.801Z,32.30
2022-11-05T22:43:16.482Z,33.42
2022-11-05T22:46:11.370Z,31.37
2022-11-05T22:49:04.206Z,33.50
2022-11-05T22:52:06.846Z,33.00
2022-11-05T22:54:59.147Z,38.27
2022-11-05T22:57:51.001Z,30.17
2022-11-05T23:00:43.351Z,32.48
2022-11-05T23:03:36.914Z,32.43
2022-11-05T23:06:48.301Z,31.43
2022-11-05T23:09:57.746Z,33.47
2022-11-05T23:12:53.455Z,37.93
2022-11-05T23:16:14.574Z,33.23
2022-11-05T23:19:24.834Z,40.87
2022-11-05T23:22:35.708Z,30.20
2022-11-05T23:25:27.738Z,32.70
2022-11-05T23:28:21.842Z,34.40
2022-11-05T23:31:32.486Z,34.53
2022-11-05T23:34:25.094Z,32.07
2022-11-05T23:37:35.389Z,33.23
2022-11-05T23:40:29.831Z,30.77
2022-11-05T23:43:39.731Z,31.87
2022-11-05T23:46:49.372Z,30.60
2022-11-05T23:49:42.000Z,33.07
2022-11-05T23:52:34.052Z,38.47
2022-11-05T23:55:27.105Z,30.35
2022-11-05T23:58:20.341Z,31.20
